Time;durP1;ratioP1;P1;durP2;ratioP2;P2;SDS_P1;SDS_P2;PMS_P1;PMS_P2;Temp;Humidity;BMP_temperature;BMP_pressure;BME280_temperature;BME280_humidity;BME280_pressure;Samples;Min_cycle;Max_cycle;Signal;HPM_P1;HPM_P2
2023/07/07 00:01:28;;;;;;;3.90;3.10;;;;;;;31.28;95.14;100552.10;106990;1251;64964;-85
2023/07/07 00:34:07;;;;;;;7.60;4.30;;;;;;;30.55;100.00;100482.33;106501;1253;63894;-85
2023/07/07 00:36:55;;;;;;;6.80;4.10;;;;;;;30.50;100.00;100473.27;106407;1254;61327;-85
2023/07/07 00:39:43;;;;;;;5.10;3.50;;;;;;;30.47;100.00;100460.16;106716;1253;61339;-84
2023/07/07 00:42:31;;;;;;;5.40;4.20;;;;;;;30.43;100.00;100450.27;106539;1253;66033;-85
2023/07/07 00:45:20;;;;;;;4.70;3.50;;;;;;;30.35;100.00;100443.27;106484;1257;61452;-84
2023/07/07 00:48:10;;;;;;;5.50;4.00;;;;;;;30.28;100.00;100441.06;106524;1256;62853;-85
2023/07/07 00:51:00;;;;;;;6.80;4.30;;;;;;;30.28;100.00;100438.25;106449;1256;61279;-85
2023/07/07 00:53:49;;;;;;;7.80;4.50;;;;;;;30.31;100.00;100441.52;106711;1254;61166;-86
2023/07/07 00:56:43;;;;;;;7.00;3.80;;;;;;;30.33;100.00;100465.26;106541;1254;66088;-84
2023/07/07 00:59:34;;;;;;;9.00;3.90;;;;;;;30.33;100.00;100512.86;106473;1254;61228;-85
2023/07/07 01:02:26;;;;;;;7.70;3.80;;;;;;;30.39;100.00;100544.86;106416;1251;64010;-84
2023/07/07 01:05:14;;;;;;;5.60;4.20;;;;;;;30.42;100.00;100546.70;106609;1254;61232;-85
2023/07/07 01:08:03;;;;;;;5.30;4.10;;;;;;;30.49;100.00;100522.48;106736;1253;61381;-85
2023/07/07 01:10:51;;;;;;;7.20;4.10;;;;;;;30.55;100.00;100505.20;106486;1256;65814;-85
2023/07/07 01:13:41;;;;;;;7.60;3.80;;;;;;;30.56;100.00;100513.48;106534;1253;61211;-85
2023/07/07 01:16:39;;;;;;;6.20;3.70;;;;;;;30.50;100.00;100520.70;106539;1251;64323;-86
2023/07/07 01:20:12;;;;;;;7.30;3.90;;;;;;;30.51;100.00;100533.58;106357;1251;61282;-86
2023/07/07 01:23:19;;;;;;;9.40;4.40;;;;;;;30.43;100.00;100545.08;106586;1251;61339;-85
2023/07/07 01:26:26;;;;;;;7.20;4.00;;;;;;;30.43;100.00;100546.29;106657;1256;66000;-85
2023/07/07 01:29:38;;;;;;;8.10;3.70;;;;;;;30.47;100.00;100551.17;106644;1254;61362;-86
2023/07/07 01:32:28;;;;;;;4.30;3.50;;;;;;;30.44;100.00;100563.20;106459;1251;65701;-86
2023/07/07 01:35:18;;;;;;;5.10;3.20;;;;;;;30.47;100.00;100560.52;106430;1253;61256;-86
2023/07/07 01:38:26;;;;;;;7.00;3.60;;;;;;;30.49;100.00;100553.89;106420;1254;61237;-86
2023/07/07 01:41:40;;;;;;;6.30;4.00;;;;;;;30.49;100.00;100554.63;106549;1253;66025;-84
2023/07/07 01:44:57;;;;;;;3.60;3.10;;;;;;;30.44;100.00;100555.78;106550;1254;61353;-85
2023/07/07 01:47:55;;;;;;;4.40;3.20;;;;;;;30.48;100.00;100560.98;106315;1261;62876;-85
2023/07/07 01:50:43;;;;;;;5.60;3.50;;;;;;;30.55;100.00;100574.64;106254;1260;61374;-85
2023/07/07 01:53:31;;;;;;;8.50;3.70;;;;;;;30.56;100.00;100600.98;106430;1252;61250;-85
2023/07/07 01:56:21;;;;;;;3.50;3.20;;;;;;;30.57;100.00;100620.30;106708;1253;64623;-85
2023/07/07 01:59:08;;;;;;;5.80;3.80;;;;;;;30.60;100.00;100645.89;106667;1254;61437;-85
2023/07/07 02:01:56;;;;;;;6.30;3.90;;;;;;;30.64;100.00;100664.50;106300;1254;63900;-87
2023/07/07 02:04:44;;;;;;;5.50;3.80;;;;;;;30.69;100.00;100665.90;106464;1256;61231;-85
2023/07/07 02:07:32;;;;;;;10.30;4.30;;;;;;;30.81;100.00;100662.13;106557;1254;61260;-85
2023/07/07 02:10:21;;;;;;;6.10;4.20;;;;;;;30.85;100.00;100640.36;106536;1253;65733;-86
2023/07/07 02:13:08;;;;;;;4.80;4.10;;;;;;;30.78;100.00;100636.52;106580;1254;61332;-86
2023/07/07 02:15:56;;;;;;;6.90;4.10;;;;;;;30.81;100.00;100641.66;106606;1254;62618;-86
2023/07/07 02:18:48;;;;;;;4.70;3.80;;;;;;;30.87;100.00;100643.33;106342;1254;61333;-86
2023/07/07 02:21:37;;;;;;;7.50;3.60;;;;;;;30.86;100.00;100646.71;106624;1255;61346;-86
2023/07/07 02:24:24;;;;;;;6.60;3.90;;;;;;;30.88;100.00;100642.27;106430;1252;74572;-86
2023/07/07 02:27:12;;;;;;;5.90;4.30;;;;;;;30.88;100.00;100627.37;106590;1253;61282;-87
2023/07/07 02:30:00;;;;;;;4.30;3.90;;;;;;;30.81;100.00;100624.17;106523;1254;62858;-87
2023/07/07 02:32:49;;;;;;;4.10;3.40;;;;;;;30.71;100.00;100605.46;106590;1251;61349;-87
2023/07/07 02:35:39;;;;;;;5.80;3.80;;;;;;;30.69;100.00;100579.04;106566;1251;61313;-86
2023/07/07 02:38:28;;;;;;;9.00;4.10;;;;;;;30.66;100.00;100553.94;106683;1254;68053;-87
2023/07/07 02:41:16;;;;;;;6.20;4.00;;;;;;;30.66;100.00;100533.55;106489;1254;61158;-87
2023/07/07 02:44:03;;;;;;;4.30;3.70;;;;;;;30.71;100.00;100520.20;106553;1251;64027;-88
2023/07/07 02:46:52;;;;;;;4.80;3.60;;;;;;;30.78;100.00;100507.41;106556;1251;61402;-87
2023/07/07 02:49:40;;;;;;;5.50;4.00;;;;;;;30.80;100.00;100483.30;106665;1254;61115;-87
2023/07/07 02:52:29;;;;;;;4.60;3.60;;;;;;;30.81;100.00;100454.45;106451;1256;66176;-86
2023/07/07 02:55:17;;;;;;;6.60;3.80;;;;;;;30.80;100.00;100436.65;106630;1254;61346;-86
2023/07/07 02:58:05;;;;;;;5.30;3.40;;;;;;;30.80;100.00;100419.30;106423;1254;65278;-86
2023/07/07 03:00:53;;;;;;;7.10;3.90;;;;;;;30.82;100.00;100399.16;106586;1254;61243;-87
2023/07/07 03:03:43;;;;;;;5.90;3.80;;;;;;;30.87;100.00;100386.80;106553;1256;61267;-86
2023/07/07 03:06:32;;;;;;;3.90;3.30;;;;;;;30.89;100.00;100383.30;106739;1256;65743;-87
2023/07/07 03:09:20;;;;;;;8.40;3.70;;;;;;;30.96;100.00;100389.44;106595;1254;61362;-88
2023/07/07 03:12:08;;;;;;;6.20;3.10;;;;;;;31.02;100.00;100404.52;106536;1254;62887;-88
2023/07/07 03:14:57;;;;;;;4.80;3.50;;;;;;;31.09;100.00;100420.55;106482;1252;61323;-87
2023/07/07 03:17:47;;;;;;;3.80;3.20;;;;;;;31.13;100.00;100435.66;106580;1251;60018;-87
2023/07/07 03:20:35;;;;;;;13.50;3.70;;;;;;;31.09;99.98;100445.63;106394;1254;67304;-85
2023/07/07 03:23:26;;;;;;;7.30;3.60;;;;;;;31.09;100.00;100452.64;106548;1252;61220;-87
2023/07/07 03:26:16;;;;;;;7.40;4.20;;;;;;;31.11;100.00;100455.12;106655;1254;64997;-85
2023/07/07 03:29:08;;;;;;;16.90;8.60;;;;;;;31.12;100.00;100468.59;106629;1254;61357;-85
2023/07/07 03:31:56;;;;;;;7.40;3.90;;;;;;;31.11;100.00;100481.89;106532;1254;59583;-87
2023/07/07 03:34:47;;;;;;;4.70;3.90;;;;;;;31.13;100.00;100480.26;106484;1251;66316;-86
2023/07/07 03:37:36;;;;;;;8.20;3.70;;;;;;;31.16;100.00;100476.59;106698;1251;61359;-86
2023/07/07 03:40:24;;;;;;;6.70;4.00;;;;;;;31.21;100.00;100464.68;106624;1254;62771;-87
2023/07/07 03:43:13;;;;;;;14.50;6.00;;;;;;;31.31;100.00;100468.91;106439;1251;61349;-86
2023/07/07 03:46:01;;;;;;;5.40;4.00;;;;;;;31.44;100.00;100461.29;106492;1251;61335;-86
2023/07/07 03:48:50;;;;;;;5.60;3.90;;;;;;;31.61;100.00;100457.68;106436;1254;66127;-85
2023/07/07 03:51:39;;;;;;;5.20;3.90;;;;;;;31.79;100.00;100455.74;106554;1254;61288;-86
2023/07/07 03:54:29;;;;;;;6.00;3.70;;;;;;;31.98;99.20;100454.61;106937;1251;64239;-87
2023/07/07 03:57:17;;;;;;;5.60;4.20;;;;;;;32.07;98.30;100444.30;106488;1254;61335;-87
2023/07/07 04:00:05;;;;;;;6.90;3.50;;;;;;;32.21;97.89;100441.67;106604;1254;61330;-88
2023/07/07 04:03:01;;;;;;;5.50;3.90;;;;;;;32.45;95.28;100440.15;106756;1254;68555;-87
2023/07/07 04:05:49;;;;;;;6.70;4.80;;;;;;;32.59;94.67;100439.11;106498;1252;61225;-87
2023/07/07 04:08:39;;;;;;;7.20;3.50;;;;;;;32.80;93.58;100446.81;106449;1253;65176;-87
2023/07/07 04:11:27;;;;;;;5.60;3.90;;;;;;;32.92;90.29;100446.10;106262;1253;61469;-87
2023/07/07 04:14:15;;;;;;;7.50;3.90;;;;;;;32.94;88.36;100442.10;106605;1254;61230;-88
2023/07/07 04:17:03;;;;;;;11.50;4.00;;;;;;;33.02;88.27;100436.06;106383;1251;279547;-88
2023/07/07 04:19:52;;;;;;;7.30;4.80;;;;;;;33.16;88.85;100437.50;106611;1256;61204;-83
2023/07/07 04:22:42;;;;;;;9.80;4.50;;;;;;;33.30;88.37;100442.46;106723;1253;65068;-84
2023/07/07 04:25:30;;;;;;;7.40;3.70;;;;;;;33.46;88.53;100455.01;106870;1252;61240;-84
2023/07/07 04:28:19;;;;;;;7.20;3.90;;;;;;;33.59;87.04;100454.82;106477;1254;61891;-89
2023/07/07 04:31:09;;;;;;;9.90;4.20;;;;;;;33.69;87.39;100464.50;106826;1253;66414;-85
2023/07/07 04:33:57;;;;;;;8.20;5.10;;;;;;;33.75;86.82;100460.55;106600;1251;61408;-89
2023/07/07 04:36:45;;;;;;;9.30;4.40;;;;;;;33.77;85.51;100457.42;106372;1253;63786;-85
2023/07/07 04:39:33;;;;;;;10.00;4.90;;;;;;;33.89;83.94;100461.70;106324;1253;61217;-87
2023/07/07 04:42:22;;;;;;;9.80;4.70;;;;;;;33.96;82.81;100454.66;106402;1253;61240;-85
2023/07/07 04:45:10;;;;;;;15.00;6.30;;;;;;;33.99;83.27;100451.34;106255;1254;66145;-83
2023/07/07 04:47:58;;;;;;;7.90;4.10;;;;;;;34.08;83.00;100455.02;106542;1253;61225;-83
2023/07/07 04:50:46;;;;;;;6.20;4.40;;;;;;;34.26;80.77;100444.64;106429;1254;64016;-88
2023/07/07 04:53:36;;;;;;;6.80;4.30;;;;;;;34.32;79.27;100443.27;106481;1258;61164;-85
2023/07/07 04:56:24;;;;;;;7.10;3.90;;;;;;;34.21;80.65;100443.31;106266;1251;61197;-85
2023/07/07 04:59:12;;;;;;;9.40;4.10;;;;;;;34.26;81.82;100440.91;106270;1255;66352;-89
2023/07/07 05:02:00;;;;;;;10.30;5.00;;;;;;;34.40;81.10;100445.02;106286;1254;61127;-85
2023/07/07 05:04:48;;;;;;;11.60;5.40;;;;;;;34.50;79.65;100452.98;106380;1254;64078;-89
2023/07/07 05:07:38;;;;;;;7.20;4.30;;;;;;;34.58;78.45;100458.05;106273;1256;61240;-89
2023/07/07 05:10:26;;;;;;;8.40;4.60;;;;;;;34.64;77.17;100462.67;106454;1254;61294;-88
2023/07/07 05:13:13;;;;;;;5.80;4.30;;;;;;;34.69;76.93;100473.98;106570;1253;65810;-85
2023/07/07 05:16:10;;;;;;;5.10;4.20;;;;;;;34.74;77.64;100484.16;106337;1251;61260;-89
2023/07/07 05:18:58;;;;;;;6.50;4.00;;;;;;;34.93;78.68;100485.50;106383;1254;63711;-84
2023/07/07 05:21:46;;;;;;;6.40;4.30;;;;;;;35.11;78.36;100490.41;106330;1254;61302;-83
2023/07/07 05:24:35;;;;;;;8.20;4.90;;;;;;;35.27;76.35;100488.89;106392;1253;61157;-88
2023/07/07 05:27:22;;;;;;;7.70;4.30;;;;;;;35.42;75.56;100496.17;106383;1255;65853;-88
2023/07/07 05:30:11;;;;;;;5.60;4.50;;;;;;;35.47;74.88;100501.86;106356;1257;61268;-88
2023/07/07 05:32:59;;;;;;;6.90;4.30;;;;;;;35.50;74.03;100502.11;106449;1254;64764;-84
2023/07/07 05:36:08;;;;;;;5.70;4.70;;;;;;;35.51;73.67;100497.14;106532;1251;61356;-85
2023/07/07 05:38:57;;;;;;;5.60;4.40;;;;;;;35.43;73.18;100493.46;106467;1256;61266;-88
2023/07/07 05:41:44;;;;;;;5.30;3.90;;;;;;;35.57;75.43;100494.52;106256;1251;65804;-87
2023/07/07 05:44:33;;;;;;;8.10;4.00;;;;;;;35.89;72.31;100489.36;106397;1251;61336;-87
2023/07/07 05:47:20;;;;;;;7.80;4.20;;;;;;;36.09;70.41;100484.28;106415;1254;63123;-83
2023/07/07 05:50:09;;;;;;;5.50;3.90;;;;;;;36.22;69.23;100481.11;106466;1253;61222;-88
2023/07/07 05:52:57;;;;;;;7.80;4.00;;;;;;;36.24;67.69;100476.10;106248;1254;61224;-84
2023/07/07 05:55:46;;;;;;;6.30;4.10;;;;;;;36.17;69.63;100467.80;106283;1254;66397;-84
2023/07/07 05:58:35;;;;;;;6.30;4.00;;;;;;;36.25;71.40;100463.17;106424;1253;61339;-84
2023/07/07 06:01:23;;;;;;;4.50;3.60;;;;;;;36.41;70.98;100463.52;106420;1255;62880;-84
2023/07/07 06:04:11;;;;;;;4.10;3.50;;;;;;;36.57;68.59;100467.61;106468;1255;61333;-88
2023/07/07 06:06:59;;;;;;;6.00;3.90;;;;;;;36.70;65.57;100461.89;106382;1252;61227;-85
2023/07/07 06:09:57;;;;;;;5.90;4.40;;;;;;;36.79;65.31;100461.33;106303;1254;66035;-88
2023/07/07 06:12:45;;;;;;;5.10;3.90;;;;;;;36.81;65.65;100457.69;106744;1254;61099;-89
2023/07/07 06:15:35;;;;;;;4.70;3.60;;;;;;;36.84;64.42;100451.67;106787;1253;63898;-84
2023/07/07 06:18:24;;;;;;;6.00;3.80;;;;;;;36.67;65.93;100447.85;106425;1251;61201;-85
2023/07/07 06:21:12;;;;;;;4.70;3.90;;;;;;;36.74;67.27;100444.49;106349;1257;61304;-85
2023/07/07 06:24:00;;;;;;;4.90;3.80;;;;;;;37.00;67.32;100447.52;106474;1254;66076;-85
2023/07/07 06:26:48;;;;;;;6.60;4.20;;;;;;;37.20;63.85;100452.80;106336;1254;61250;-85
2023/07/07 06:29:36;;;;;;;6.50;3.80;;;;;;;37.25;62.81;100450.48;106499;1254;63915;-88
2023/07/07 06:32:24;;;;;;;5.30;3.70;;;;;;;37.26;62.16;100449.52;106479;1252;61153;-88
2023/07/07 06:35:12;;;;;;;7.20;4.10;;;;;;;37.22;63.05;100443.36;106566;1254;61256;-88
2023/07/07 06:38:01;;;;;;;6.70;4.00;;;;;;;37.33;64.95;100438.08;106425;1254;64720;-87
2023/07/07 06:40:48;;;;;;;5.90;4.10;;;;;;;37.57;65.77;100441.91;106347;1253;61329;-88
2023/07/07 06:43:37;;;;;;;5.30;3.60;;;;;;;37.71;63.60;100438.04;106655;1254;64066;-84
2023/07/07 06:46:26;;;;;;;5.30;3.80;;;;;;;37.84;60.43;100436.44;106391;1253;61336;-85
2023/07/07 06:49:14;;;;;;;9.30;3.90;;;;;;;37.88;61.57;100429.04;106627;1256;61865;-90
2023/07/07 06:52:03;;;;;;;5.00;3.90;;;;;;;38.01;60.40;100426.73;106450;1260;66474;-88
2023/07/07 06:54:52;;;;;;;6.60;4.10;;;;;;;38.14;58.10;100426.69;106550;1254;61310;-88
2023/07/07 06:57:40;;;;;;;7.40;4.40;;;;;;;38.18;58.28;100424.25;106437;1253;64020;-88
2023/07/07 07:00:30;;;;;;;5.80;4.00;;;;;;;38.26;56.96;100420.71;106344;1254;61346;-87
2023/07/07 07:03:19;;;;;;;6.50;4.00;;;;;;;38.28;55.63;100422.60;106532;1251;61253;-87
2023/07/07 07:06:07;;;;;;;7.20;4.50;;;;;;;38.30;55.14;100426.25;106430;1256;65860;-85
2023/07/07 07:08:56;;;;;;;5.30;3.90;;;;;;;38.27;54.88;100428.21;106463;1255;61173;-87
2023/07/07 07:11:44;;;;;;;5.10;3.60;;;;;;;38.29;57.29;100424.85;106609;1254;65071;-88
2023/07/07 07:14:36;;;;;;;7.20;3.60;;;;;;;38.51;56.88;100429.01;106369;1251;61231;-87
2023/07/07 07:17:24;;;;;;;6.40;4.20;;;;;;;38.68;54.78;100439.76;106482;1253;61257;-87
2023/07/07 07:20:13;;;;;;;6.50;4.50;;;;;;;38.78;53.41;100445.77;106614;1255;65881;-87
2023/07/07 07:23:01;;;;;;;6.00;3.90;;;;;;;38.79;53.60;100445.48;106773;1254;61554;-87
2023/07/07 07:25:50;;;;;;;6.10;3.90;;;;;;;38.93;53.67;100446.75;106490;1254;64872;-89
2023/07/07 07:28:38;;;;;;;8.10;4.60;;;;;;;38.89;52.05;100454.16;106565;1251;61461;-88
2023/07/07 07:31:29;;;;;;;3.80;3.30;;;;;;;38.87;52.91;100460.52;106507;1259;61288;-88
2023/07/07 07:34:24;;;;;;;8.30;4.60;;;;;;;38.79;52.10;100463.73;106491;1252;73868;-88
2023/07/07 07:37:16;;;;;;;6.70;4.10;;;;;;;39.02;53.68;100466.16;106468;1256;61285;-90
2023/07/07 07:40:05;;;;;;;5.80;4.10;;;;;;;39.22;51.23;100466.16;106635;1255;64029;-91
2023/07/07 07:42:53;;;;;;;6.00;4.10;;;;;;;39.17;50.48;100470.02;106503;1257;61899;-91
2023/07/07 07:45:43;;;;;;;5.30;3.90;;;;;;;39.29;51.39;100473.57;106415;1253;61252;-89
2023/07/07 07:48:32;;;;;;;5.00;4.20;;;;;;;39.36;49.50;100477.71;106749;1252;64506;-90
2023/07/07 07:51:20;;;;;;;5.90;4.00;;;;;;;39.54;49.79;100480.83;106487;1256;61703;-89
2023/07/07 07:54:24;;;;;;;5.70;3.70;;;;;;;39.80;48.77;100481.66;106591;1254;64220;-89
2023/07/07 07:57:16;;;;;;;5.10;3.70;;;;;;;40.00;46.59;100479.40;106615;1254;61339;-89
2023/07/07 08:00:06;;;;;;;5.20;4.10;;;;;;;39.99;46.47;100477.50;106496;1252;61221;-91
2023/07/07 08:03:01;;;;;;;5.00;4.20;;;;;;;40.00;43.77;100472.95;106613;1254;64842;-89
2023/07/07 08:05:51;;;;;;;5.40;3.90;;;;;;;39.79;43.28;100479.65;106482;1251;61204;-89
2023/07/07 08:08:41;;;;;;;6.10;3.90;;;;;;;39.77;45.19;100481.21;106557;1256;64045;-88
2023/07/07 08:11:41;;;;;;;5.00;3.90;;;;;;;39.88;45.93;100478.27;106568;1256;61250;-87
2023/07/07 08:14:31;;;;;;;6.10;4.10;;;;;;;39.93;46.41;100474.73;106518;1255;60090;-89
2023/07/07 08:17:20;;;;;;;6.20;3.60;;;;;;;40.04;44.34;100474.45;106470;1255;66090;-88
2023/07/07 08:20:24;;;;;;;13.10;6.60;;;;;;;39.98;44.02;100468.13;106399;1252;61261;-88
2023/07/07 08:23:12;;;;;;;4.30;3.70;;;;;;;40.19;43.88;100464.16;106475;1254;64625;-88
2023/07/07 08:26:04;;;;;;;6.30;3.60;;;;;;;40.22;42.71;100462.46;106659;1254;61179;-89
2023/07/07 08:28:55;;;;;;;6.10;3.90;;;;;;;40.11;42.86;100461.61;106884;1254;61110;-87
2023/07/07 08:31:43;;;;;;;6.60;3.70;;;;;;;40.10;43.06;100460.61;106658;1256;66034;-89
2023/07/07 08:34:32;;;;;;;7.00;3.70;;;;;;;40.12;42.46;100463.11;106584;1254;61368;-88
2023/07/07 08:37:40;;;;;;;7.00;4.00;;;;;;;40.14;41.70;100461.02;106429;1254;64067;-88
2023/07/07 08:40:35;;;;;;;4.00;3.60;;;;;;;40.13;42.09;100456.27;106561;1253;61250;-87
2023/07/07 08:43:30;;;;;;;5.50;4.10;;;;;;;40.21;43.15;100453.12;106297;1254;61113;-89
2023/07/07 08:46:30;;;;;;;5.30;4.20;;;;;;;40.30;43.19;100453.84;106574;1256;66213;-88
2023/07/07 08:49:44;;;;;;;5.80;3.70;;;;;;;40.36;43.68;100444.61;106514;1255;61263;-88
2023/07/07 08:52:37;;;;;;;5.10;3.80;;;;;;;40.54;43.79;100436.85;106613;1253;65137;-89
2023/07/07 08:55:35;;;;;;;6.30;3.60;;;;;;;40.58;43.99;100438.38;106580;1259;61266;-88
2023/07/07 08:58:30;;;;;;;4.90;3.40;;;;;;;40.66;43.06;100442.19;106571;1254;61256;-88
2023/07/07 09:01:18;;;;;;;4.60;3.60;;;;;;;40.71;42.45;100446.43;106624;1252;66073;-88
2023/07/07 09:04:27;;;;;;;3.90;3.50;;;;;;;40.77;42.40;100448.07;106552;1254;61333;-88
2023/07/07 09:07:57;;;;;;;6.60;3.80;;;;;;;40.87;41.80;100446.13;106440;1253;62581;-87
2023/07/07 09:11:23;;;;;;;7.50;3.80;;;;;;;41.04;41.72;100444.68;106536;1251;61132;-88
2023/07/07 09:14:14;;;;;;;5.70;3.90;;;;;;;41.36;41.75;100446.14;106438;1256;61231;-89
2023/07/07 09:17:13;;;;;;;4.10;3.40;;;;;;;41.64;39.85;100440.90;106437;1253;68277;-88
2023/07/07 09:20:03;;;;;;;4.30;3.20;;;;;;;41.47;40.56;100435.23;106520;1254;61291;-90
2023/07/07 09:23:32;;;;;;;5.60;3.70;;;;;;;41.29;40.22;100432.20;106418;1251;65494;-90
